createdAt,value
2019-02-23T00:01:06.382Z,77.14
2019-02-23T00:06:29.945Z,76.98
2019-02-23T00:11:41.540Z,77.23
2019-02-23T00:16:59.188Z,79.53
2019-02-23T00:22:17.217Z,75.61
2019-02-23T00:27:34.943Z,75.93
2019-02-23T00:32:52.334Z,75.01
2019-02-23T00:38:09.800Z,76.70
2019-02-23T00:43:27.990Z,76.47
2019-02-23T00:48:45.178Z,77.69
2019-02-23T00:54:02.879Z,77.55
2019-02-23T00:59:20.335Z,75.09
2019-02-23T01:04:37.876Z,75.67
2019-02-23T01:09:55.713Z,78.73
2019-02-23T01:15:13.729Z,75.72
2019-02-23T01:20:31.740Z,76.30
2019-02-23T01:25:49.310Z,76.00
2019-02-23T01:31:06.632Z,73.73
2019-02-23T01:36:25.123Z,76.35
2019-02-23T01:41:43.527Z,75.93
2019-02-23T01:47:01.483Z,74.98
2019-02-23T01:52:18.972Z,75.75
2019-02-23T01:57:37.147Z,74.99
2019-02-23T02:02:54.990Z,75.58
2019-02-23T02:08:12.777Z,74.83
2019-02-23T02:13:30.534Z,75.38
2019-02-23T02:18:48.026Z,74.15
2019-02-23T02:24:06.034Z,74.25
2019-02-23T02:29:23.838Z,73.39
2019-02-23T02:34:41.949Z,76.57
2019-02-23T02:39:59.463Z,75.31
2019-02-23T02:45:17.722Z,77.07
2019-02-23T02:50:35.327Z,74.82
2019-02-23T02:55:53.239Z,74.45
2019-02-23T03:01:11.343Z,74.79
2019-02-23T03:06:29.000Z,75.17
2019-02-23T03:11:46.355Z,74.53
2019-02-23T03:17:04.329Z,74.52
2019-02-23T03:22:23.480Z,74.79
2019-02-23T03:27:43.048Z,75.08
2019-02-23T03:33:00.718Z,75.00
2019-02-23T03:38:19.252Z,74.82
2019-02-23T03:43:36.940Z,75.88
2019-02-23T03:48:55.121Z,76.76
2019-02-23T03:54:12.750Z,75.77
2019-02-23T03:59:30.299Z,77.17
2019-02-23T04:04:47.872Z,76.38
2019-02-23T04:10:05.849Z,76.56
2019-02-23T04:15:23.377Z,76.11
2019-02-23T04:20:40.473Z,77.86
2019-02-23T04:25:58.960Z,76.82
2019-02-23T04:31:18.068Z,77.18
2019-02-23T04:36:37.880Z,78.19
2019-02-23T04:41:55.151Z,77.85
2019-02-23T04:47:12.647Z,79.29
2019-02-23T04:52:30.485Z,79.17
2019-02-23T04:57:48.345Z,79.16
2019-02-23T05:03:05.994Z,79.85
2019-02-23T05:08:25.017Z,80.57
2019-02-23T05:13:44.221Z,79.17
2019-02-23T05:19:04.476Z,80.60
2019-02-23T05:24:24.209Z,79.73
2019-02-23T05:29:44.168Z,79.17
2019-02-23T05:35:04.154Z,79.63
2019-02-23T05:40:21.451Z,79.79
2019-02-23T05:45:40.643Z,79.88
2019-02-23T05:50:58.490Z,80.17
2019-02-23T05:56:17.875Z,80.41
2019-02-23T06:01:35.230Z,80.02
2019-02-23T06:06:53.332Z,79.76
2019-02-23T06:12:11.041Z,80.60
2019-02-23T06:17:28.473Z,81.37
2019-02-23T06:22:47.000Z,80.70
2019-02-23T06:28:04.630Z,81.30
2019-02-23T06:33:21.983Z,80.73
2019-02-23T06:38:40.046Z,81.12
2019-02-23T06:43:57.840Z,81.55
2019-02-23T06:49:15.878Z,81.93
2019-02-23T06:54:33.607Z,82.16
2019-02-23T06:59:51.722Z,82.31
2019-02-23T07:05:09.064Z,82.34
2019-02-23T07:10:26.737Z,81.67
2019-02-23T07:15:44.270Z,82.06
2019-02-23T07:21:02.097Z,81.30
2019-02-23T07:26:20.171Z,81.63
2019-02-23T07:31:37.899Z,81.02
2019-02-23T07:36:56.551Z,81.13
2019-02-23T07:42:16.033Z,79.73
2019-02-23T07:47:34.328Z,78.60
2019-02-23T07:52:51.486Z,78.28
2019-02-23T07:58:09.648Z,77.12
2019-02-23T08:03:27.819Z,73.87
2019-02-23T08:08:45.674Z,75.62
2019-02-23T08:14:04.039Z,74.46
2019-02-23T08:19:21.537Z,73.83
2019-02-23T08:24:39.174Z,74.19
2019-02-23T08:29:57.737Z,72.75
2019-02-23T08:35:16.621Z,72.20
2019-02-23T08:40:34.948Z,72.08
2019-02-23T08:45:52.628Z,71.77
2019-02-23T08:51:10.401Z,72.01
2019-02-23T08:56:28.022Z,73.75
2019-02-23T09:01:45.759Z,68.64
2019-02-23T09:07:03.507Z,70.22
2019-02-23T09:12:20.835Z,69.57
2019-02-23T09:17:38.563Z,70.68
2019-02-23T09:23:00.091Z,62.72
2019-02-23T09:28:14.233Z,67.97
2019-02-23T09:33:32.951Z,66.73
2019-02-23T09:38:51.137Z,67.60
2019-02-23T09:44:08.346Z,67.13
2019-02-23T09:49:25.688Z,66.75
2019-02-23T09:54:43.597Z,64.17
2019-02-23T10:00:01.728Z,59.84
2019-02-23T10:05:19.485Z,61.76
2019-02-23T10:10:37.079Z,45.31
2019-02-23T10:15:54.740Z,61.74
2019-02-23T10:21:12.612Z,60.72
2019-02-23T10:26:31.287Z,62.20
2019-02-23T10:31:48.911Z,63.57
2019-02-23T10:37:06.491Z,51.76
2019-02-23T10:42:24.146Z,45.42
2019-02-23T10:47:42.340Z,61.02
2019-02-23T10:53:00.061Z,56.02
2019-02-23T10:58:17.759Z,54.27
2019-02-23T11:03:35.364Z,51.26
2019-02-23T11:08:52.619Z,57.90
2019-02-23T11:14:10.993Z,58.18
2019-02-23T11:19:29.060Z,39.71
2019-02-23T11:24:46.617Z,41.04
2019-02-23T11:30:04.330Z,45.33
2019-02-23T11:35:22.602Z,40.83
2019-02-23T11:40:40.446Z,40.74
2019-02-23T11:45:57.938Z,27.04
2019-02-23T11:51:15.742Z,38.92
2019-02-23T11:56:33.735Z,25.34
2019-02-23T12:01:51.192Z,26.62
2019-02-23T12:07:09.461Z,33.23
2019-02-23T12:12:27.811Z,25.11
2019-02-23T12:17:45.656Z,28.57
2019-02-23T12:23:04.536Z,31.53
2019-02-23T12:28:22.049Z,21.74
2019-02-23T12:33:40.061Z,23.99
2019-02-23T12:38:58.554Z,27.86
2019-02-23T12:44:17.537Z,29.41
2019-02-23T12:49:35.161Z,25.56
2019-02-23T12:54:52.987Z,25.03
2019-02-23T13:00:11.584Z,29.80
2019-02-23T13:05:29.321Z,26.42
2019-02-23T13:10:46.852Z,21.82
2019-02-23T13:16:09.760Z,24.86
2019-02-23T13:21:46.967Z,27.85
2019-02-23T13:27:12.900Z,27.76
2019-02-23T13:32:49.720Z,28.46
2019-02-23T13:38:16.475Z,26.00
2019-02-23T13:43:52.630Z,28.82
2019-02-23T13:49:45.293Z,26.90
2019-02-23T13:55:12.185Z,22.79
2019-02-23T14:00:47.889Z,25.12
2019-02-23T14:06:15.841Z,23.39
2019-02-23T14:11:42.940Z,24.60
2019-02-23T14:17:07.422Z,25.97
2019-02-23T14:22:36.200Z,23.46
2019-02-23T14:28:22.429Z,23.73
2019-02-23T14:34:05.710Z,22.10
2019-02-23T14:39:41.162Z,20.67
2019-02-23T14:45:19.939Z,23.50
2019-02-23T14:51:01.283Z,19.01
2019-02-23T14:56:30.223Z,20.49
2019-02-23T15:01:51.336Z,18.23
2019-02-23T15:07:35.885Z,20.70
2019-02-23T15:12:59.414Z,22.56
2019-02-23T15:18:35.861Z,26.33
2019-02-23T15:24:11.470Z,27.23
2019-02-23T15:29:51.531Z,27.34
2019-02-23T15:35:13.899Z,30.01
2019-02-23T15:40:42.384Z,33.47
2019-02-23T15:46:28.970Z,33.55
2019-02-23T15:51:47.817Z,39.04
2019-02-23T15:57:06.538Z,40.58
2019-02-23T16:02:24.027Z,41.79
2019-02-23T16:07:42.200Z,41.46
2019-02-23T16:13:00.730Z,42.82
2019-02-23T16:18:18.877Z,46.07
2019-02-23T16:23:36.549Z,48.17
2019-02-23T16:28:55.911Z,47.96
2019-02-23T16:34:13.282Z,50.14
2019-02-23T16:39:32.949Z,50.45
2019-02-23T16:44:51.256Z,49.06
2019-02-23T16:50:09.886Z,52.10
2019-02-23T16:55:27.449Z,53.37
2019-02-23T17:00:45.511Z,51.88
2019-02-23T17:06:04.439Z,52.54
2019-02-23T17:11:22.047Z,56.31
2019-02-23T17:16:41.156Z,55.14
2019-02-23T17:21:59.817Z,56.43
2019-02-23T17:27:17.980Z,55.59
2019-02-23T17:32:36.762Z,57.34
2019-02-23T17:37:56.644Z,59.37
2019-02-23T17:43:16.410Z,59.39
2019-02-23T17:48:34.110Z,59.12
2019-02-23T17:53:53.190Z,58.26
2019-02-23T17:59:10.949Z,61.90
2019-02-23T18:04:28.487Z,61.51
2019-02-23T18:09:46.657Z,61.70
2019-02-23T18:15:05.583Z,60.13
2019-02-23T18:20:23.936Z,61.43
2019-02-23T18:25:41.731Z,62.80
2019-02-23T18:31:00.350Z,63.08
2019-02-23T18:36:18.440Z,63.23
2019-02-23T18:41:36.903Z,66.34
2019-02-23T18:46:54.532Z,63.72
2019-02-23T18:52:12.540Z,63.37
2019-02-23T18:57:30.405Z,64.57
2019-02-23T19:02:48.278Z,64.94
2019-02-23T19:08:07.210Z,66.45
2019-02-23T19:13:26.186Z,64.42
2019-02-23T19:18:44.627Z,64.63
2019-02-23T19:24:02.178Z,64.64
2019-02-23T19:29:19.990Z,66.86
2019-02-23T19:34:38.361Z,68.24
2019-02-23T19:39:56.388Z,67.55
2019-02-23T19:45:15.434Z,66.66
2019-02-23T19:50:35.157Z,69.01
2019-02-23T19:55:53.456Z,68.58
2019-02-23T20:01:11.066Z,69.07
2019-02-23T20:06:30.280Z,69.00
2019-02-23T20:11:48.411Z,67.04
2019-02-23T20:17:06.497Z,67.50
2019-02-23T20:22:24.726Z,68.17
2019-02-23T20:27:43.241Z,70.32
2019-02-23T20:33:00.891Z,69.85
2019-02-23T20:38:19.168Z,68.75
2019-02-23T20:43:37.809Z,69.66
2019-02-23T20:48:56.230Z,69.98
2019-02-23T20:54:15.166Z,69.26
2019-02-23T20:59:33.517Z,70.08
2019-02-23T21:04:51.085Z,70.51
2019-02-23T21:10:09.050Z,70.41
2019-02-23T21:15:26.842Z,70.31
2019-02-23T21:20:45.244Z,69.51
2019-02-23T21:26:04.947Z,70.18
2019-02-23T21:31:22.706Z,70.58
2019-02-23T21:36:41.926Z,70.71
2019-02-23T21:41:59.319Z,70.05
2019-02-23T21:47:20.170Z,70.11
2019-02-23T21:52:38.059Z,70.32
2019-02-23T21:57:56.605Z,70.27
2019-02-23T22:03:14.604Z,72.16
2019-02-23T22:08:32.567Z,71.18
2019-02-23T22:13:50.302Z,72.20
2019-02-23T22:19:07.982Z,71.97
2019-02-23T22:24:26.807Z,71.04
2019-02-23T22:29:44.594Z,71.79
2019-02-23T22:35:02.527Z,70.83
2019-02-23T22:40:20.089Z,71.35
2019-02-23T22:45:38.277Z,71.21
2019-02-23T22:50:56.844Z,71.90
2019-02-23T22:56:14.034Z,72.61
2019-02-23T23:01:31.832Z,71.25
2019-02-23T23:06:49.299Z,71.23
2019-02-23T23:12:07.295Z,71.05
2019-02-23T23:17:25.381Z,71.33
2019-02-23T23:22:43.771Z,73.08
2019-02-23T23:28:01.763Z,74.63
2019-02-23T23:33:18.927Z,73.25
2019-02-23T23:38:36.072Z,73.62
2019-02-23T23:43:53.873Z,73.28
2019-02-23T23:49:11.713Z,73.06
2019-02-23T23:54:29.328Z,74.05
2019-02-23T23:59:47.562Z,73.28
